Portada
METAR-TAF:

METAR-TAF

Aeroports :

Kokshetau, Kazakhstan

latitud: 53-19-48N, longitud: 069-35-48E, altitud: 270 m

Observació

L'informe es va fer fa 11 hores i 17 minuts, a les 14:00 UTC
Vent 6 kt del Nord/Nord-Oest
Temperatura -3°C
Humitat 100%
Pressió 1019 hPa
Visibilitat: 2000 m
Cel cobert a una alçada de 200 ft
Cinarra, boirina

METAR: UACK 131400Z 33003MPS 2000 SG BR OVC002 M03/M03 Q1019 R20/090070 NOSIG RMK QBB060 QFE740/0987

Hora: 07:17 (01:17 UTC)

Pronòstic

L'informe es va fer fa 14 hores i 7 minuts, a les 11:10 UTC
Pronòstic vàlid del 13 a les 12 UTC al 13 a les 21 UTC
Vent 10 kt del Nord
Visibilitat: 2000 m
Cel cobert a una alçada de 700 ft
Cinarra, boirina
Temporalment
l' 13 a les 12 UTC al 13 a les 21 UTC
Vent 10 kt del Nord/Nord-Est
Visibilitat: 0500 m
Cel cobert a una alçada de 200 ft
neu, boira

TAF: UACK 131110Z 1312/1321 35005MPS 2000 SG BR OVC007 TEMPO 1312/1321 03005MPS 0500 SN FG OVC002

Observacions i pronòstics meteorològics de més de 4000 aeroports (METAR i TAF).

Les estacions disponibles són els punts grocs i vermells al mapa.

Posi el ratolí al punt desitjat per veure el nom de l'estació.

Feu clic per veure les observacions i els pronòstics meteorològics.

Per canviar el mapa: feu clic els botons verds amb una creu de color negre per apropar; al botó verd amb un guió per allunyar la imatge; o en les fletxes verdes per a mapes adjacents.


METAR-TAF: